Time;durP1;ratioP1;P1;durP2;ratioP2;P2;SDS_P1;SDS_P2;PMS_P1;PMS_P2;Temp;Humidity;BMP_temperature;BMP_pressure;BME280_temperature;BME280_humidity;BME280_pressure;Samples;Min_cycle;Max_cycle;Signal;HPM_P1;HPM_P2
2021/10/02 00:41:06;;;;;;;6.30;2.20;;;;;;;12.93;72.68;101358.81;4976497;28;20172;-77
2021/10/02 00:46:52;;;;;;;5.07;2.20;;;;;;;12.96;73.10;101347.72;4975836;28;20185;-77
2021/10/02 00:49:18;;;;;;;3.77;2.50;;;;;;;12.94;73.18;101349.38;4995345;28;20188;-76
2021/10/02 00:51:45;;;;;;;3.60;2.20;;;;;;;12.88;73.76;101349.28;4974156;28;20205;-77
2021/10/02 00:54:10;;;;;;;4.10;2.03;;;;;;;12.88;74.39;101351.84;5005368;28;20212;-77
2021/10/02 00:56:35;;;;;;;3.63;2.20;;;;;;;12.90;73.76;101347.63;4997048;28;20290;-76
2021/10/02 00:59:01;;;;;;;4.23;2.30;;;;;;;12.88;74.75;101345.03;4991260;28;20196;-76
2021/10/02 01:01:40;;;;;;;3.47;2.50;;;;;;;12.85;74.59;101339.81;5003875;28;20195;-76
2021/10/02 01:04:42;;;;;;;3.27;2.30;;;;;;;12.89;73.95;101345.88;5000541;28;20250;-78
2021/10/02 01:07:08;;;;;;;4.10;2.57;;;;;;;12.88;74.86;101343.28;4975458;28;20188;-76
2021/10/02 01:09:57;;;;;;;2.50;2.07;;;;;;;12.86;74.60;101345.84;4993574;28;20184;-77
2021/10/02 01:12:41;;;;;;;4.07;2.37;;;;;;;12.88;75.03;101344.13;4993237;28;20266;-77
2021/10/02 01:15:10;;;;;;;3.00;2.30;;;;;;;12.90;74.99;101347.63;4993714;28;20254;-77
2021/10/02 01:17:58;;;;;;;4.07;2.40;;;;;;;12.90;75.10;101348.47;4995423;28;20815;-77
2021/10/02 01:20:55;;;;;;;3.43;2.47;;;;;;;12.93;74.52;101345.09;4990456;28;20283;-77
2021/10/02 01:23:33;;;;;;;3.17;2.30;;;;;;;12.91;75.14;101342.47;4975757;28;20764;-77
2021/10/02 01:26:24;;;;;;;3.00;2.33;;;;;;;12.89;73.93;101344.16;4991101;28;20558;-77
2021/10/02 01:28:55;;;;;;;2.53;2.10;;;;;;;12.95;73.75;101343.44;5007712;28;20287;-77
2021/10/02 01:31:31;;;;;;;3.97;2.20;;;;;;;12.93;73.64;101350.22;5000365;28;20220;-78
2021/10/02 01:37:52;;;;;;;3.07;2.10;;;;;;;12.98;73.46;101338.34;5014697;28;20672;-77
2021/10/02 01:48:13;;;;;;;4.60;2.27;;;;;;;13.04;72.35;101332.47;4984771;28;20631;-75
2021/10/02 01:50:39;;;;;;;5.07;2.30;;;;;;;13.06;71.61;101330.78;4994513;28;20811;-77
2021/10/02 01:53:06;;;;;;;3.10;2.40;;;;;;;13.07;72.20;101330.81;4993556;28;20204;-78
2021/10/02 01:55:34;;;;;;;3.70;2.10;;;;;;;13.11;72.17;101326.59;4992306;28;20196;-77
2021/10/02 01:58:05;;;;;;;3.83;2.23;;;;;;;13.09;71.96;101334.28;4978268;28;20560;-77
2021/10/02 02:00:31;;;;;;;3.07;2.33;;;;;;;13.11;72.05;101330.00;5004757;28;20204;-79
2021/10/02 02:03:04;;;;;;;4.10;2.30;;;;;;;13.14;72.23;101336.91;5007476;28;20241;-78
2021/10/02 02:05:30;;;;;;;4.10;2.17;;;;;;;13.13;72.13;101330.94;5022632;28;20194;-77
2021/10/02 02:08:03;;;;;;;2.30;2.00;;;;;;;13.18;71.58;101336.13;5003799;28;20245;-78
2021/10/02 02:10:30;;;;;;;2.33;1.77;;;;;;;13.18;71.85;101321.56;5005544;28;20195;-78
2021/10/02 02:12:59;;;;;;;3.87;2.27;;;;;;;13.16;72.42;101320.66;5005790;28;20219;-78
2021/10/02 02:15:27;;;;;;;3.90;2.00;;;;;;;13.17;73.24;101313.84;4988253;28;20200;-78
2021/10/02 02:17:56;;;;;;;3.83;2.10;;;;;;;13.17;72.66;101313.84;5004573;28;20206;-78
2021/10/02 02:20:28;;;;;;;3.27;2.30;;;;;;;13.18;72.48;101320.69;4983049;28;20197;-77
2021/10/02 02:22:53;;;;;;;3.83;2.13;;;;;;;13.20;72.19;101316.44;5004555;28;20672;-78
2021/10/02 02:25:19;;;;;;;3.53;2.27;;;;;;;13.20;72.08;101313.84;4995375;28;20196;-77
2021/10/02 02:27:46;;;;;;;3.60;2.33;;;;;;;13.21;72.65;101310.47;5000582;28;20622;-78
2021/10/02 02:30:11;;;;;;;6.10;2.33;;;;;;;13.21;72.87;101315.63;4994575;28;20204;-78
2021/10/02 02:32:39;;;;;;;4.33;2.50;;;;;;;13.20;73.41;101319.00;5001853;28;20652;-77
2021/10/02 02:35:05;;;;;;;5.50;2.30;;;;;;;13.23;73.03;101325.09;4997273;28;20275;-76
2021/10/02 02:37:30;;;;;;;4.33;2.30;;;;;;;13.22;73.37;101320.75;5012916;28;20271;-79
2021/10/02 02:39:56;;;;;;;2.30;2.00;;;;;;;13.25;72.75;101325.13;5014687;28;20609;-77
2021/10/02 02:42:22;;;;;;;6.57;2.27;;;;;;;13.26;73.28;101324.28;4999729;28;20578;-76
2021/10/02 02:44:47;;;;;;;4.97;2.30;;;;;;;13.23;73.47;101322.50;4998939;28;20245;-76
2021/10/02 02:47:17;;;;;;;5.30;2.40;;;;;;;13.23;73.76;101316.50;4978582;28;20203;-77
2021/10/02 02:49:55;;;;;;;4.83;2.50;;;;;;;13.23;74.52;101314.81;5007800;28;20227;-77
2021/10/02 02:52:24;;;;;;;5.30;2.17;;;;;;;13.22;75.02;101314.78;5004828;28;20218;-76
2021/10/02 02:54:55;;;;;;;3.07;2.10;;;;;;;13.20;75.39;101313.84;5028627;28;20241;-77
2021/10/02 02:57:25;;;;;;;4.13;2.40;;;;;;;13.17;75.61;101312.09;5002900;28;20191;-76
2021/10/02 03:00:18;;;;;;;4.40;2.40;;;;;;;13.17;75.11;101318.97;4995439;28;20171;-78
2021/10/02 03:02:51;;;;;;;3.87;2.30;;;;;;;13.21;75.31;101320.75;5000882;28;20203;-78
2021/10/02 03:05:18;;;;;;;3.43;2.47;;;;;;;13.21;75.67;101321.59;5004048;28;20280;-78
2021/10/02 03:07:59;;;;;;;5.30;2.50;;;;;;;13.23;75.76;101316.50;5005780;28;20192;-77
2021/10/02 03:10:26;;;;;;;4.93;2.50;;;;;;;13.24;76.27;101308.81;5012938;28;20544;-78
2021/10/02 03:12:55;;;;;;;3.77;2.30;;;;;;;13.24;76.20;101310.50;4998736;28;20215;-78
2021/10/02 03:15:23;;;;;;;5.50;2.43;;;;;;;13.23;76.74;101299.38;5002535;28;20196;-77
2021/10/02 03:17:50;;;;;;;4.57;2.80;;;;;;;13.22;76.97;101307.06;4992623;28;20195;-77
2021/10/02 03:20:17;;;;;;;4.20;2.30;;;;;;;13.21;77.20;101307.91;5004885;28;20199;-77
2021/10/02 03:22:44;;;;;;;4.80;2.50;;;;;;;13.20;77.68;101303.56;5005062;28;20204;-77
2021/10/02 03:25:10;;;;;;;3.87;2.70;;;;;;;13.19;77.10;101307.00;5001512;28;20195;-76
2021/10/02 03:27:37;;;;;;;4.23;2.80;;;;;;;13.19;77.89;101301.84;5003269;28;20529;-77
2021/10/02 03:30:07;;;;;;;3.93;2.50;;;;;;;13.18;77.51;101300.13;4988964;28;20200;-78
2021/10/02 03:32:33;;;;;;;4.83;2.60;;;;;;;13.19;77.61;101295.00;5036738;28;20588;-79
2021/10/02 03:34:59;;;;;;;4.27;2.60;;;;;;;13.20;77.01;101294.16;5014558;28;20191;-78
2021/10/02 03:37:27;;;;;;;5.53;2.40;;;;;;;13.22;77.17;101299.34;5007365;28;20814;-77
2021/10/02 03:39:56;;;;;;;6.20;2.80;;;;;;;13.20;76.97;101293.28;5002521;28;20676;-77
2021/10/02 03:42:22;;;;;;;4.70;2.73;;;;;;;13.22;77.40;101292.47;4980495;28;20216;-77
2021/10/02 03:44:50;;;;;;;5.37;2.67;;;;;;;13.22;78.69;101289.06;4983570;28;20698;-78
2021/10/02 03:47:17;;;;;;;4.57;3.27;;;;;;;13.23;78.78;101290.78;4991531;28;20224;-78
2021/10/02 03:49:43;;;;;;;4.00;2.53;;;;;;;13.21;79.23;101288.19;5004287;28;20195;-78
2021/10/02 03:52:11;;;;;;;4.60;2.63;;;;;;;13.21;79.29;101289.91;5003883;28;20620;-77
2021/10/02 03:54:36;;;;;;;4.53;2.60;;;;;;;13.21;79.88;101282.19;4991273;28;20554;-78
2021/10/02 03:57:02;;;;;;;4.93;2.97;;;;;;;13.20;80.10;101280.44;5010349;28;20193;-78
2021/10/02 03:59:27;;;;;;;3.53;2.83;;;;;;;13.19;79.41;101291.56;5002389;28;20283;-78
2021/10/02 04:01:53;;;;;;;4.43;2.97;;;;;;;13.16;80.16;101283.81;4995599;28;20648;-78
2021/10/02 04:04:18;;;;;;;4.33;2.80;;;;;;;13.16;79.88;101282.09;5001812;28;20718;-77
2021/10/02 04:06:44;;;;;;;4.30;2.80;;;;;;;13.17;80.17;101290.69;4993479;28;20184;-78
2021/10/02 04:09:09;;;;;;;3.63;2.73;;;;;;;13.17;79.99;101282.97;5001703;28;20215;-78
2021/10/02 04:11:35;;;;;;;3.87;2.77;;;;;;;13.18;79.63;101271.84;4990902;28;20563;-76
2021/10/02 04:14:02;;;;;;;3.73;2.90;;;;;;;13.13;79.96;101279.50;5008250;28;20212;-77
2021/10/02 04:16:29;;;;;;;7.00;3.20;;;;;;;13.15;79.52;101279.50;5012977;28;20630;-78
2021/10/02 04:18:54;;;;;;;3.73;2.93;;;;;;;13.16;79.73;101281.25;5009935;28;20187;-78
2021/10/02 04:21:19;;;;;;;8.33;3.03;;;;;;;13.19;79.34;101273.56;4992186;28;20680;-78
2021/10/02 04:23:44;;;;;;;5.10;2.70;;;;;;;13.16;79.78;101279.53;5015046;28;20648;-78
2021/10/02 04:26:10;;;;;;;5.63;3.03;;;;;;;13.17;79.29;101283.81;5004983;28;20215;-77
2021/10/02 04:28:35;;;;;;;4.80;2.90;;;;;;;13.17;79.00;101278.69;5001169;28;20855;-78
2021/10/02 04:31:03;;;;;;;4.13;2.87;;;;;;;13.18;79.74;101277.88;4990070;28;20600;-77
2021/10/02 04:33:29;;;;;;;5.33;3.43;;;;;;;13.18;80.16;101282.13;5003835;28;20215;-77
2021/10/02 04:35:55;;;;;;;4.63;3.53;;;;;;;13.17;80.66;101280.41;5011090;28;20606;-77
2021/10/02 04:38:20;;;;;;;5.13;3.10;;;;;;;13.15;80.22;101276.91;5005866;28;20203;-78
2021/10/02 04:40:46;;;;;;;4.53;3.10;;;;;;;13.15;80.64;101274.34;5002478;28;20198;-77
2021/10/02 04:43:11;;;;;;;5.00;3.43;;;;;;;13.18;80.43;101282.13;4994635;28;20212;-79
2021/10/02 04:45:36;;;;;;;6.33;3.57;;;;;;;13.19;80.08;101289.00;5040298;28;20223;-79
2021/10/02 04:48:02;;;;;;;6.00;3.33;;;;;;;13.19;80.31;101284.72;5017658;28;20183;-77
2021/10/02 04:50:27;;;;;;;4.93;3.47;;;;;;;13.18;80.71;101293.28;5017067;28;20187;-78
2021/10/02 04:52:54;;;;;;;6.10;3.63;;;;;;;13.20;80.76;101289.03;4998482;28;20231;-79
2021/10/02 04:55:20;;;;;;;7.43;3.93;;;;;;;13.18;81.01;101294.97;4999383;28;20196;-78
2021/10/02 04:57:45;;;;;;;7.90;4.23;;;;;;;13.19;80.86;101299.28;4989693;28;20207;-77
2021/10/02 05:00:11;;;;;;;5.73;3.60;;;;;;;13.17;81.72;101296.69;5007756;28;20537;-78
2021/10/02 05:02:36;;;;;;;7.43;3.97;;;;;;;13.15;81.63;101293.22;5007214;28;20655;-78
2021/10/02 05:05:02;;;;;;;5.60;3.20;;;;;;;13.13;81.62;101299.19;5002720;28;20180;-78
2021/10/02 05:07:27;;;;;;;8.10;3.93;;;;;;;13.15;80.71;101300.94;5003083;28;20198;-79
2021/10/02 05:09:52;;;;;;;6.43;3.67;;;;;;;13.19;81.09;101294.13;5009184;28;20282;-79
2021/10/02 05:12:18;;;;;;;7.23;4.07;;;;;;;13.17;81.16;101300.97;5004368;28;20250;-77
2021/10/02 05:14:43;;;;;;;5.93;4.57;;;;;;;13.18;81.42;101290.72;5007912;28;20195;-79
2021/10/02 05:17:11;;;;;;;6.87;4.87;;;;;;;13.18;81.24;101290.72;5003649;28;20179;-79
2021/10/02 05:19:38;;;;;;;6.40;4.27;;;;;;;13.16;82.32;101294.94;5015184;28;20199;-78
2021/10/02 05:22:04;;;;;;;5.70;4.20;;;;;;;13.14;82.53;101295.78;5009432;28;20180;-79
2021/10/02 05:24:30;;;;;;;7.23;4.20;;;;;;;13.15;81.89;101302.63;4994860;28;20192;-79
2021/10/02 05:26:55;;;;;;;9.33;4.60;;;;;;;13.12;82.67;101288.03;4994973;28;20176;-77
2021/10/02 05:29:20;;;;;;;5.90;4.43;;;;;;;13.13;82.54;101292.34;4998660;28;20202;-78
2021/10/02 05:31:46;;;;;;;9.07;5.03;;;;;;;13.12;82.59;101293.16;4985041;28;20218;-77
2021/10/02 05:34:11;;;;;;;7.10;4.37;;;;;;;13.12;82.68;101302.59;4994024;28;20212;-78
2021/10/02 05:36:36;;;;;;;7.73;5.07;;;;;;;13.14;82.31;101303.50;4977904;28;20723;-78
2021/10/02 05:39:03;;;;;;;8.27;4.97;;;;;;;13.13;82.55;101305.22;4978130;28;20192;-78
2021/10/02 05:41:28;;;;;;;8.77;5.40;;;;;;;13.15;82.91;101300.94;4994746;28;20238;-78
2021/10/02 05:43:54;;;;;;;6.57;5.03;;;;;;;13.15;82.93;101293.22;4994602;28;20685;-77
2021/10/02 05:46:19;;;;;;;6.87;4.30;;;;;;;13.15;82.79;101295.81;4984377;28;20539;-78
2021/10/02 05:48:44;;;;;;;6.30;4.10;;;;;;;13.12;82.92;101297.47;4991297;28;20720;-78
2021/10/02 05:51:10;;;;;;;5.37;3.73;;;;;;;13.16;82.47;101304.41;4974994;28;20231;-78
2021/10/02 05:53:36;;;;;;;6.73;3.80;;;;;;;13.13;83.05;101312.03;4976738;28;20201;-78
2021/10/02 05:56:01;;;;;;;5.17;3.53;;;;;;;13.11;82.77;101306.03;4975011;28;20203;-78
2021/10/02 05:58:26;;;;;;;6.30;3.90;;;;;;;13.15;83.21;101298.38;4975955;28;20192;-78
2021/10/02 06:00:52;;;;;;;6.37;4.03;;;;;;;13.20;82.12;101293.28;4976253;28;20243;-80
2021/10/02 06:03:17;;;;;;;7.23;3.73;;;;;;;13.22;82.21;101305.31;4975123;28;20263;-78
2021/10/02 06:05:42;;;;;;;5.00;3.50;;;;;;;13.18;81.60;101313.88;4990654;28;20251;-78
2021/10/02 06:08:08;;;;;;;6.80;3.10;;;;;;;13.20;81.96;101311.28;4975061;28;20188;-77
2021/10/02 06:10:33;;;;;;;5.10;3.00;;;;;;;13.21;81.64;101310.47;4981302;28;20273;-78
2021/10/02 06:12:59;;;;;;;5.23;3.20;;;;;;;13.23;81.47;101313.91;4989179;28;20234;-78
2021/10/02 06:15:25;;;;;;;5.13;3.07;;;;;;;13.26;81.14;101311.41;5015845;28;20187;-79
2021/10/02 06:17:51;;;;;;;3.77;3.30;;;;;;;13.23;81.34;101309.66;5000377;28;20210;-76
2021/10/02 06:20:17;;;;;;;5.20;3.10;;;;;;;13.25;81.09;101320.81;4985494;28;20219;-75
2021/10/02 06:22:43;;;;;;;4.43;2.87;;;;;;;13.32;80.95;101321.78;5012892;28;20208;-77
2021/10/02 06:25:09;;;;;;;5.67;3.07;;;;;;;13.27;80.65;101318.28;4991775;28;20213;-77
2021/10/02 06:27:35;;;;;;;7.00;3.30;;;;;;;13.32;80.46;101320.09;4991894;28;20199;-77
2021/10/02 06:30:01;;;;;;;5.60;3.30;;;;;;;13.34;80.27;101313.25;4996384;28;20202;-77
2021/10/02 06:32:26;;;;;;;6.87;3.30;;;;;;;13.41;80.11;101309.94;5007822;28;20600;-75
2021/10/02 06:34:51;;;;;;;7.30;3.90;;;;;;;13.47;80.09;101306.56;4984077;28;20488;-76
2021/10/02 06:37:17;;;;;;;6.83;3.53;;;;;;;13.47;80.86;101312.59;4987807;28;20201;-77
2021/10/02 06:39:42;;;;;;;6.23;3.30;;;;;;;13.46;80.10;101316.03;5001694;28;20192;-77
2021/10/02 06:42:07;;;;;;;5.97;3.13;;;;;;;13.45;80.79;101316.00;4993811;28;20335;-75
2021/10/02 06:44:33;;;;;;;4.70;3.67;;;;;;;13.37;81.04;101323.59;4995091;28;20188;-77
2021/10/02 06:46:58;;;;;;;5.17;3.90;;;;;;;13.32;81.30;101332.06;4995243;28;20196;-76
2021/10/02 06:49:27;;;;;;;7.67;4.53;;;;;;;13.28;81.40;101335.44;4995203;28;20196;-77
2021/10/02 06:51:53;;;;;;;6.03;4.43;;;;;;;13.25;82.36;101333.69;4993306;28;20216;-77
2021/10/02 06:54:18;;;;;;;8.20;4.50;;;;;;;13.26;82.22;101337.13;4982161;28;20645;-78
2021/10/02 06:56:44;;;;;;;5.73;4.40;;;;;;;13.23;82.33;101337.94;4975254;28;20196;-78
2021/10/02 06:59:09;;;;;;;8.47;4.67;;;;;;;13.21;82.72;101344.75;4990090;28;20192;-78
2021/10/02 07:01:35;;;;;;;8.23;4.43;;;;;;;13.22;83.03;101338.75;4974010;28;20195;-78
2021/10/02 07:04:00;;;;;;;9.13;4.83;;;;;;;13.21;82.20;101342.19;4994943;28;20220;-77
2021/10/02 07:06:26;;;;;;;8.23;4.80;;;;;;;13.18;82.88;101341.28;4993002;28;20192;-76
2021/10/02 07:08:51;;;;;;;7.53;5.20;;;;;;;13.24;82.47;101338.78;4993944;28;20290;-77
2021/10/02 07:11:16;;;;;;;9.13;6.20;;;;;;;13.24;83.06;101331.06;4991338;28;20282;-78
2021/10/02 07:13:41;;;;;;;10.77;6.20;;;;;;;13.26;82.63;101342.28;4993043;28;20258;-78
2021/10/02 07:16:07;;;;;;;10.60;6.07;;;;;;;13.29;82.45;101342.31;4976414;28;20207;-76
2021/10/02 07:18:32;;;;;;;12.90;6.70;;;;;;;13.30;82.56;101333.78;4994033;28;20546;-78
2021/10/02 07:20:57;;;;;;;10.70;6.03;;;;;;;13.32;82.56;101330.38;4976686;28;20283;-78
2021/10/02 07:23:24;;;;;;;7.83;5.73;;;;;;;13.39;82.31;101334.75;4978881;28;20239;-79
2021/10/02 07:25:50;;;;;;;7.10;5.43;;;;;;;13.45;81.82;101334.00;4996324;28;20192;-77
2021/10/02 07:28:15;;;;;;;9.60;5.33;;;;;;;13.46;81.89;101333.16;4998373;28;20303;-78
2021/10/02 07:30:41;;;;;;;8.27;4.87;;;;;;;13.42;81.96;101333.94;4996694;28;20664;-78
2021/10/02 07:33:06;;;;;;;6.60;4.47;;;;;;;13.44;81.95;101340.84;4996381;28;20227;-78
2021/10/02 07:35:32;;;;;;;5.93;4.47;;;;;;;13.45;81.73;101334.84;4980390;28;20614;-77
2021/10/02 07:37:57;;;;;;;7.23;3.93;;;;;;;13.59;80.92;101329.94;5013043;28;20299;-77
2021/10/02 07:40:22;;;;;;;7.10;3.87;;;;;;;13.77;80.63;101328.47;4998270;28;20218;-78
2021/10/02 07:42:55;;;;;;;6.33;4.20;;;;;;;13.84;80.23;101332.00;4997187;28;20279;-77
2021/10/02 07:45:22;;;;;;;5.33;3.90;;;;;;;13.92;79.87;101327.84;4996647;28;20250;-78
2021/10/02 07:47:50;;;;;;;5.43;4.37;;;;;;;13.88;79.76;101333.78;4996581;28;20196;-76
2021/10/02 07:50:17;;;;;;;6.53;4.23;;;;;;;13.89;79.68;101331.22;4996344;28;20180;-77
2021/10/02 07:52:43;;;;;;;5.93;4.30;;;;;;;13.91;79.73;101326.97;4997887;28;20759;-78
2021/10/02 07:55:12;;;;;;;8.27;4.23;;;;;;;13.86;79.50;101340.63;4997466;28;20188;-76
2021/10/02 07:57:38;;;;;;;7.53;4.10;;;;;;;13.79;80.16;101337.09;4996167;28;20704;-78
2021/10/02 08:00:10;;;;;;;8.43;4.90;;;;;;;13.75;80.87;101347.31;4996094;28;20176;-77
2021/10/02 08:02:43;;;;;;;7.97;4.87;;;;;;;13.66;80.60;101348.06;4997883;28;20203;-78
2021/10/02 08:05:09;;;;;;;6.63;4.17;;;;;;;13.67;80.95;101347.22;4997623;28;20188;-78
2021/10/02 08:07:41;;;;;;;6.93;4.30;;;;;;;13.71;81.05;101345.56;5002093;28;20187;-77
2021/10/02 08:10:07;;;;;;;6.77;4.77;;;;;;;13.57;81.53;101349.63;4993768;28;20330;-77
2021/10/02 08:12:32;;;;;;;5.60;4.07;;;;;;;13.65;81.49;101340.31;4976908;28;20212;-77
2021/10/02 08:14:58;;;;;;;6.87;4.47;;;;;;;13.71;80.87;101333.53;4992828;28;20194;-77
2021/10/02 08:17:26;;;;;;;6.63;4.73;;;;;;;13.71;80.86;101338.69;4994511;28;20207;-77
2021/10/02 08:19:55;;;;;;;8.30;4.17;;;;;;;13.65;81.67;101332.59;4994691;28;20192;-77
2021/10/02 08:22:23;;;;;;;6.43;4.70;;;;;;;13.69;81.17;101326.66;4993591;28;20289;-77
2021/10/02 08:24:51;;;;;;;8.50;4.43;;;;;;;13.73;81.09;101319.00;4993807;28;20223;-78
2021/10/02 08:27:17;;;;;;;6.53;4.93;;;;;;;13.74;81.56;101325.00;4993810;28;20243;-77
2021/10/02 08:29:43;;;;;;;9.07;5.10;;;;;;;13.72;82.00;101313.84;4993918;28;20299;-77
2021/10/02 08:32:08;;;;;;;11.10;5.03;;;;;;;13.74;82.21;101320.72;4994343;28;20303;-77
2021/10/02 08:34:35;;;;;;;6.13;5.20;;;;;;;13.80;82.11;101318.22;4993836;28;20215;-77
2021/10/02 08:37:00;;;;;;;9.30;4.63;;;;;;;13.90;81.49;101314.94;4995288;28;20184;-79
2021/10/02 08:39:25;;;;;;;6.53;5.30;;;;;;;13.96;81.10;101309.00;4977878;28;20665;-77
2021/10/02 08:41:51;;;;;;;6.27;4.90;;;;;;;14.05;81.26;101317.69;4994148;28;20196;-77
2021/10/02 08:44:18;;;;;;;7.33;5.20;;;;;;;14.04;81.37;101315.13;4995503;28;20223;-77
2021/10/02 08:46:46;;;;;;;9.67;5.80;;;;;;;14.02;81.44;101309.97;4995162;28;20215;-76
2021/10/02 08:49:32;;;;;;;7.17;5.30;;;;;;;14.09;81.13;101298.88;4994395;28;20192;-78
2021/10/02 08:52:02;;;;;;;9.27;5.30;;;;;;;14.27;81.10;101298.28;4995846;28;20251;-78
2021/10/02 08:54:28;;;;;;;8.83;5.47;;;;;;;14.21;81.45;101305.91;4994030;28;20199;-76
2021/10/02 08:56:54;;;;;;;7.13;5.17;;;;;;;14.28;81.49;101321.47;4995587;28;20227;-76
2021/10/02 08:59:20;;;;;;;6.43;5.33;;;;;;;14.26;81.40;101317.13;4977695;28;20204;-77
2021/10/02 09:01:46;;;;;;;9.07;6.40;;;;;;;14.30;80.73;101312.06;4994236;28;20192;-76
2021/10/02 09:04:12;;;;;;;9.63;7.23;;;;;;;14.30;81.57;101318.91;4995683;28;20211;-77
2021/10/02 09:06:38;;;;;;;10.83;6.77;;;;;;;14.29;81.81;101330.06;4977927;28;20196;-77
2021/10/02 09:09:05;;;;;;;9.47;6.13;;;;;;;14.23;81.48;101330.00;4994539;28;20325;-77
2021/10/02 09:11:31;;;;;;;7.93;5.77;;;;;;;14.25;81.45;101313.72;4994646;28;20704;-77
2021/10/02 09:13:56;;;;;;;7.90;5.93;;;;;;;14.33;81.38;101312.09;4978016;28;20208;-78
2021/10/02 09:16:22;;;;;;;6.40;5.23;;;;;;;14.41;81.42;101319.91;4994128;28;20202;-79
2021/10/02 09:18:48;;;;;;;7.00;5.30;;;;;;;14.39;81.67;101321.59;4978123;28;20188;-77
2021/10/02 09:21:13;;;;;;;7.23;5.60;;;;;;;14.40;81.62;101323.31;4995653;28;20203;-78
2021/10/02 09:23:40;;;;;;;8.47;6.17;;;;;;;14.38;81.30;101317.28;4993992;28;20220;-78
2021/10/02 09:26:06;;;;;;;7.57;6.20;;;;;;;14.44;81.46;101315.66;4995798;28;20242;-78
2021/10/02 09:28:43;;;;;;;6.83;5.23;;;;;;;14.43;81.52;101323.38;4995565;28;20207;-78
2021/10/02 09:31:08;;;;;;;7.00;5.80;;;;;;;14.47;81.75;101322.56;4994352;28;20202;-77
2021/10/02 09:33:35;;;;;;;11.73;5.53;;;;;;;14.53;80.93;101310.59;5010893;28;20208;-78
2021/10/02 09:36:00;;;;;;;9.13;7.00;;;;;;;14.61;80.97;101311.56;4994217;28;20192;-78
2021/10/02 09:38:27;;;;;;;8.93;5.90;;;;;;;14.63;80.96;101315.00;4994688;28;20581;-77
2021/10/02 09:40:55;;;;;;;7.93;5.93;;;;;;;14.77;80.48;101312.56;4994202;28;20223;-77
2021/10/02 09:43:21;;;;;;;8.67;6.97;;;;;;;14.86;80.02;101308.38;4995003;28;20295;-78
2021/10/02 09:45:48;;;;;;;8.50;6.33;;;;;;;14.94;79.24;101305.84;4995945;28;20648;-77
2021/10/02 09:48:16;;;;;;;9.20;6.57;;;;;;;15.00;79.33;101304.19;4995050;28;20220;-77
2021/10/02 09:50:45;;;;;;;7.83;7.03;;;;;;;15.12;78.76;101283.69;4994957;28;20262;-78
2021/10/02 09:53:18;;;;;;;9.00;6.90;;;;;;;15.90;75.61;101270.44;4995976;28;20211;-78
2021/10/02 09:55:53;;;;;;;8.57;6.50;;;;;;;16.57;73.34;101269.84;4995764;28;20200;-77
2021/10/02 09:58:27;;;;;;;8.83;6.07;;;;;;;17.43;69.64;101265.56;5001606;28;20214;-77
2021/10/02 10:00:52;;;;;;;7.53;5.90;;;;;;;17.55;68.98;101256.03;4990785;28;20241;-79
2021/10/02 10:03:18;;;;;;;8.60;6.03;;;;;;;17.31;69.57;101268.16;4992573;28;20701;-76
2021/10/02 10:05:50;;;;;;;7.33;5.30;;;;;;;19.48;62.26;101250.56;4976859;28;20268;-78
2021/10/02 10:08:28;;;;;;;8.07;5.60;;;;;;;17.32;68.58;101260.34;4977836;28;20219;-78
2021/10/02 10:11:09;;;;;;;6.60;5.30;;;;;;;18.75;64.33;101239.06;4994965;28;20206;-78
2021/10/02 10:13:34;;;;;;;6.90;5.43;;;;;;;18.50;65.34;101253.94;4996561;28;20277;-77
2021/10/02 10:16:00;;;;;;;8.83;6.33;;;;;;;17.56;67.85;101249.13;4995064;28;20664;-78
2021/10/02 10:18:32;;;;;;;7.70;5.10;;;;;;;18.40;65.49;101235.84;4994909;28;20187;-77
2021/10/02 10:21:00;;;;;;;7.37;5.37;;;;;;;18.87;64.15;101236.34;4995575;28;20568;-77
2021/10/02 10:23:31;;;;;;;7.47;5.07;;;;;;;19.10;62.90;101237.03;4996744;28;20223;-78
2021/10/02 10:26:01;;;;;;;6.57;5.33;;;;;;;18.88;64.01;101230.31;4994027;28;20212;-78
2021/10/02 10:28:32;;;;;;;9.23;5.07;;;;;;;18.58;64.00;101223.63;4994269;28;20204;-77
2021/10/02 10:31:15;;;;;;;7.43;4.73;;;;;;;18.36;65.46;101234.13;4995778;28;20620;-78
2021/10/02 10:33:43;;;;;;;6.20;4.83;;;;;;;18.59;64.95;101232.25;4996350;28;20223;-78
2021/10/02 10:36:12;;;;;;;6.63;4.43;;;;;;;22.26;53.94;101224.31;4994794;28;20317;-78
2021/10/02 10:38:39;;;;;;;6.03;4.27;;;;;;;23.01;51.02;101219.06;4996716;28;20195;-78
2021/10/02 10:41:05;;;;;;;6.70;4.17;;;;;;;20.99;56.51;101234.66;4996777;28;20720;-78
2021/10/02 10:43:32;;;;;;;6.80;4.37;;;;;;;19.43;61.02;101239.34;5011411;28;20211;-78
2021/10/02 10:46:06;;;;;;;8.33;4.67;;;;;;;18.37;64.25;101236.72;5014965;28;20890;-78
2021/10/02 10:48:33;;;;;;;6.97;4.00;;;;;;;19.09;62.33;101224.91;4995505;28;20191;-76
2021/10/02 10:51:13;;;;;;;7.63;4.37;;;;;;;18.87;62.37;101232.03;4993943;28;20192;-76
2021/10/02 10:53:41;;;;;;;5.60;3.60;;;;;;;18.92;63.29;101231.97;4975356;28;20306;-77
2021/10/02 10:56:08;;;;;;;7.17;4.20;;;;;;;19.09;63.23;101225.78;4973648;28;20724;-75
2021/10/02 10:58:34;;;;;;;7.90;3.67;;;;;;;18.17;63.96;101237.66;4977043;28;20176;-75
2021/10/02 11:01:02;;;;;;;7.00;3.80;;;;;;;17.89;65.12;101229.16;4994902;28;20741;-76
2021/10/02 11:03:42;;;;;;;7.37;3.90;;;;;;;17.57;66.33;101238.78;4994988;28;20302;-77
2021/10/02 11:06:09;;;;;;;10.17;4.47;;;;;;;17.32;67.67;101236.22;4993815;28;20191;-77
2021/10/02 11:09:02;;;;;;;5.90;3.70;;;;;;;17.18;68.45;101238.78;4988400;28;20204;-77
2021/10/02 11:11:45;;;;;;;5.07;3.60;;;;;;;17.19;68.87;101244.84;4975356;28;20212;-78
2021/10/02 11:14:15;;;;;;;5.93;4.03;;;;;;;17.04;68.92;101248.31;4990389;28;20217;-77
2021/10/02 11:16:42;;;;;;;5.90;3.67;;;;;;;17.16;68.54;101244.84;4981336;28;20235;-77
2021/10/02 11:19:28;;;;;;;5.17;3.83;;;;;;;17.33;68.83;101241.38;4994172;28;20195;-77
2021/10/02 11:22:34;;;;;;;5.67;3.83;;;;;;;17.23;68.87;101236.22;4994129;28;20192;-76
2021/10/02 11:25:00;;;;;;;6.33;3.80;;;;;;;17.21;69.00;101237.94;4994225;28;20195;-77
2021/10/02 11:27:27;;;;;;;7.73;4.23;;;;;;;17.10;68.24;101232.78;4979537;28;20208;-75
2021/10/02 11:29:52;;;;;;;5.87;3.20;;;;;;;17.08;68.40;101231.06;5005743;28;20210;-78
2021/10/02 11:32:21;;;;;;;5.10;3.50;;;;;;;17.14;68.06;101233.63;5012864;28;20211;-75
2021/10/02 11:35:09;;;;;;;5.30;3.13;;;;;;;17.02;67.22;101231.03;4985698;28;20234;-77
2021/10/02 11:38:01;;;;;;;5.57;3.73;;;;;;;17.06;66.94;101227.59;4974773;28;20200;-78
2021/10/02 11:40:35;;;;;;;5.80;3.40;;;;;;;17.01;66.93;101226.75;4973741;28;20220;-78
2021/10/02 11:43:13;;;;;;;6.07;4.10;;;;;;;16.97;66.88;101225.00;4971560;28;20228;-77
2021/10/02 11:45:45;;;;;;;7.40;3.90;;;;;;;16.90;66.84;101221.56;4972570;28;20567;-76
2021/10/02 11:48:13;;;;;;;4.77;3.70;;;;;;;16.95;68.04;101214.66;4973390;28;20563;-75
2021/10/02 11:50:40;;;;;;;6.47;4.20;;;;;;;16.97;68.47;101214.66;4996352;28;20238;-76
2021/10/02 11:53:05;;;;;;;7.57;4.30;;;;;;;17.00;68.69;101212.09;4991276;28;20263;-74
2021/10/02 11:55:34;;;;;;;5.87;4.50;;;;;;;17.03;68.41;101212.94;4991263;28;20287;-76
2021/10/02 11:58:11;;;;;;;7.03;4.57;;;;;;;16.92;68.82;101209.50;4991260;28;20195;-76
2021/10/02 12:00:45;;;;;;;6.10;3.97;;;;;;;17.14;68.45;101202.59;4991325;28;20207;-76
2021/10/02 12:03:12;;;;;;;5.60;3.87;;;;;;;17.32;67.84;101203.38;4992735;28;20692;-76
2021/10/02 12:05:41;;;;;;;8.13;4.37;;;;;;;17.85;66.33;101192.88;4992681;28;20199;-76
2021/10/02 12:08:07;;;;;;;7.07;4.30;;;;;;;18.14;65.83;101188.44;4994153;28;20207;-76
2021/10/02 12:10:51;;;;;;;7.03;4.33;;;;;;;18.38;64.94;101183.13;4994848;28;20191;-77
2021/10/02 12:13:33;;;;;;;5.67;4.47;;;;;;;18.11;65.50;101181.53;4996635;28;20227;-75
2021/10/02 12:16:07;;;;;;;7.47;5.40;;;;;;;17.69;67.25;101188.66;4996756;28;20180;-77
2021/10/02 12:19:06;;;;;;;6.77;5.30;;;;;;;17.47;67.44;101194.78;4996312;28;20200;-77
2021/10/02 12:21:37;;;;;;;7.93;5.13;;;;;;;17.27;67.48;101191.34;4996290;28;20196;-76
2021/10/02 12:24:16;;;;;;;5.87;4.97;;;;;;;17.28;68.17;101196.53;4996738;28;20214;-77
2021/10/02 12:26:50;;;;;;;8.73;5.80;;;;;;;17.25;68.10;101183.56;4996026;28;20192;-77